Altona, New York
Current Conditions -  °F | °C
As of 4:53 PM on Sunday 25 Jan 2015 (Local Time) from KPBG Reporting Station
Clear Clear  
Wind Chill:   Ceiling: Unl
Heat Index: 13°   Visibility: 10mi
Dew Point: -3°   Wind: 6mph
Humidity: 49%   Direction: 280°W
Pressure: 29.93"   Gusts: NA
Location:  44.89°N, 73.66°W
Report Text: KPBG 252153Z AUTO 28005KT 10SM CLR M11/M19 A2993 RMK AO2 SLP139 T11061194
Loading
Personal Weather Stations






























Interactive Weather Map New forecast layout! Learn more

10-Day Weather Forecast

Advertisements
Track Severe Weather on mobile